sensor_id;sensor_type;location;lat;lon;timestamp;P1;durP1;ratioP1;P2;durP2;ratioP2
8046;SDS011;74083;42.516;23.358;2023-11-19T14:34:16;6.67;;;4.60;;
8046;SDS011;74083;42.516;23.358;2023-11-19T14:37:03;8.77;;;4.53;;
8046;SDS011;74083;42.516;23.358;2023-11-19T14:39:49;7.80;;;4.97;;
8046;SDS011;74083;42.516;23.358;2023-11-19T14:42:36;6.53;;;5.10;;
8046;SDS011;74083;42.516;23.358;2023-11-19T14:45:23;13.07;;;5.10;;
8046;SDS011;74083;42.516;23.358;2023-11-19T14:48:08;5.30;;;4.60;;
8046;SDS011;74083;42.516;23.358;2023-11-19T14:50:56;8.00;;;5.17;;
8046;SDS011;74083;42.516;23.358;2023-11-19T14:53:41;5.27;;;3.90;;
8046;SDS011;74083;42.516;23.358;2023-11-19T14:56:27;4.60;;;4.20;;
8046;SDS011;74083;42.516;23.358;2023-11-19T14:59:13;6.60;;;4.37;;
8046;SDS011;74083;42.516;23.358;2023-11-19T15:01:59;5.57;;;4.57;;
8046;SDS011;74083;42.516;23.358;2023-11-19T15:04:46;5.77;;;4.10;;
8046;SDS011;74083;42.516;23.358;2023-11-19T15:07:33;5.87;;;4.20;;
8046;SDS011;74083;42.516;23.358;2023-11-19T15:10:19;6.60;;;3.93;;
8046;SDS011;74083;42.516;23.358;2023-11-19T15:13:05;4.13;;;3.73;;
8046;SDS011;74083;42.516;23.358;2023-11-19T15:15:50;6.13;;;3.60;;
8046;SDS011;74083;42.516;23.358;2023-11-19T15:18:37;4.70;;;3.67;;
8046;SDS011;74083;42.516;23.358;2023-11-19T15:21:23;4.03;;;3.63;;
8046;SDS011;74083;42.516;23.358;2023-11-19T15:24:10;3.90;;;3.50;;
8046;SDS011;74083;42.516;23.358;2023-11-19T15:26:57;3.80;;;3.40;;
8046;SDS011;74083;42.516;23.358;2023-11-19T15:29:42;4.10;;;3.70;;
8046;SDS011;74083;42.516;23.358;2023-11-19T15:32:28;9.30;;;5.40;;
8046;SDS011;74083;42.516;23.358;2023-11-19T15:35:15;9.00;;;5.87;;
8046;SDS011;74083;42.516;23.358;2023-11-19T15:38:01;11.73;;;8.37;;
8046;SDS011;74083;42.516;23.358;2023-11-19T15:40:48;11.23;;;6.40;;
8046;SDS011;74083;42.516;23.358;2023-11-19T15:43:35;12.70;;;5.50;;
8046;SDS011;74083;42.516;23.358;2023-11-19T15:46:21;9.80;;;5.27;;
8046;SDS011;74083;42.516;23.358;2023-11-19T15:49:07;24.07;;;5.70;;
8046;SDS011;74083;42.516;23.358;2023-11-19T15:51:54;17.57;;;4.97;;
8046;SDS011;74083;42.516;23.358;2023-11-19T15:54:39;11.33;;;4.97;;
8046;SDS011;74083;42.516;23.358;2023-11-19T15:57:26;10.03;;;4.73;;
8046;SDS011;74083;42.516;23.358;2023-11-19T16:00:12;14.33;;;5.43;;
8046;SDS011;74083;42.516;23.358;2023-11-19T16:03:00;11.77;;;4.83;;
8046;SDS011;74083;42.516;23.358;2023-11-19T16:05:46;13.60;;;4.30;;
8046;SDS011;74083;42.516;23.358;2023-11-19T16:08:32;6.67;;;4.23;;
8046;SDS011;74083;42.516;23.358;2023-11-19T16:11:18;13.27;;;4.20;;
8046;SDS011;74083;42.516;23.358;2023-11-19T16:14:05;5.80;;;4.17;;
8046;SDS011;74083;42.516;23.358;2023-11-19T16:16:50;4.50;;;4.00;;
8046;SDS011;74083;42.516;23.358;2023-11-19T16:19:36;5.80;;;3.97;;
8046;SDS011;74083;42.516;23.358;2023-11-19T16:22:24;7.00;;;3.90;;
8046;SDS011;74083;42.516;23.358;2023-11-19T16:25:10;5.40;;;3.77;;
8046;SDS011;74083;42.516;23.358;2023-11-19T16:27:56;3.87;;;3.20;;
8046;SDS011;74083;42.516;23.358;2023-11-19T16:30:43;3.40;;;3.00;;
8046;SDS011;74083;42.516;23.358;2023-11-19T16:33:29;4.63;;;3.07;;
8046;SDS011;74083;42.516;23.358;2023-11-19T16:36:14;3.10;;;2.80;;
8046;SDS011;74083;42.516;23.358;2023-11-19T16:39:01;3.23;;;2.90;;
8046;SDS011;74083;42.516;23.358;2023-11-19T16:41:46;4.00;;;2.50;;
8046;SDS011;74083;42.516;23.358;2023-11-19T16:44:31;2.70;;;2.50;;
8046;SDS011;74083;42.516;23.358;2023-11-19T16:47:18;2.80;;;2.60;;
8046;SDS011;74083;42.516;23.358;2023-11-19T16:50:04;2.40;;;2.20;;
8046;SDS011;74083;42.516;23.358;2023-11-19T16:52:51;2.70;;;2.50;;
8046;SDS011;74083;42.516;23.358;2023-11-19T16:55:37;2.70;;;2.50;;
8046;SDS011;74083;42.516;23.358;2023-11-19T16:58:23;3.23;;;2.37;;
8046;SDS011;74083;42.516;23.358;2023-11-19T17:01:08;4.00;;;2.23;;
8046;SDS011;74083;42.516;23.358;2023-11-19T17:03:56;7.70;;;4.30;;
8046;SDS011;74083;42.516;23.358;2023-11-19T17:06:42;6.70;;;3.87;;
8046;SDS011;74083;42.516;23.358;2023-11-19T17:09:27;4.30;;;3.87;;
8046;SDS011;74083;42.516;23.358;2023-11-19T17:12:13;4.50;;;4.10;;
8046;SDS011;74083;42.516;23.358;2023-11-19T17:14:59;5.37;;;4.37;;
8046;SDS011;74083;42.516;23.358;2023-11-19T17:17:47;4.83;;;3.77;;
8046;SDS011;74083;42.516;23.358;2023-11-19T17:20:34;4.83;;;3.53;;
8046;SDS011;74083;42.516;23.358;2023-11-19T17:23:22;4.23;;;3.30;;
8046;SDS011;74083;42.516;23.358;2023-11-19T17:26:08;2.97;;;2.63;;
8046;SDS011;74083;42.516;23.358;2023-11-19T17:28:54;2.93;;;2.67;;
8046;SDS011;74083;42.516;23.358;2023-11-19T17:31:40;2.73;;;2.47;;
8046;SDS011;74083;42.516;23.358;2023-11-19T17:34:27;4.30;;;2.40;;
8046;SDS011;74083;42.516;23.358;2023-11-19T17:37:15;2.30;;;2.17;;
8046;SDS011;74083;42.516;23.358;2023-11-19T17:40:01;2.33;;;2.13;;
8046;SDS011;74083;42.516;23.358;2023-11-19T17:42:47;2.97;;;2.10;;
8046;SDS011;74083;42.516;23.358;2023-11-19T17:45:33;4.03;;;2.17;;
8046;SDS011;74083;42.516;23.358;2023-11-19T17:48:19;2.27;;;2.07;;
8046;SDS011;74083;42.516;23.358;2023-11-19T17:51:06;2.30;;;2.10;;
8046;SDS011;74083;42.516;23.358;2023-11-19T17:53:53;2.30;;;2.10;;
8046;SDS011;74083;42.516;23.358;2023-11-19T17:56:39;1.80;;;1.70;;
8046;SDS011;74083;42.516;23.358;2023-11-19T17:59:25;2.20;;;2.00;;
8046;SDS011;74083;42.516;23.358;2023-11-19T18:02:11;2.37;;;2.10;;
8046;SDS011;74083;42.516;23.358;2023-11-19T18:04:57;2.00;;;1.90;;
8046;SDS011;74083;42.516;23.358;2023-11-19T18:07:43;2.13;;;1.90;;
8046;SDS011;74083;42.516;23.358;2023-11-19T18:10:31;2.23;;;2.03;;
8046;SDS011;74083;42.516;23.358;2023-11-19T18:13:16;2.43;;;2.23;;
8046;SDS011;74083;42.516;23.358;2023-11-19T18:16:02;3.00;;;2.70;;
8046;SDS011;74083;42.516;23.358;2023-11-19T18:18:49;9.63;;;3.13;;
8046;SDS011;74083;42.516;23.358;2023-11-19T18:21:35;5.00;;;2.67;;
8046;SDS011;74083;42.516;23.358;2023-11-19T18:24:21;4.37;;;3.57;;
8046;SDS011;74083;42.516;23.358;2023-11-19T18:27:09;6.93;;;4.90;;
8046;SDS011;74083;42.516;23.358;2023-11-19T18:29:55;6.33;;;4.90;;
8046;SDS011;74083;42.516;23.358;2023-11-19T18:32:41;4.90;;;4.40;;
8046;SDS011;74083;42.516;23.358;2023-11-19T18:35:28;5.27;;;4.50;;
8046;SDS011;74083;42.516;23.358;2023-11-19T18:38:14;5.43;;;4.10;;
8046;SDS011;74083;42.516;23.358;2023-11-19T18:40:59;5.23;;;4.20;;
8046;SDS011;74083;42.516;23.358;2023-11-19T18:43:46;4.57;;;4.07;;
8046;SDS011;74083;42.516;23.358;2023-11-19T18:46:32;4.60;;;3.80;;
8046;SDS011;74083;42.516;23.358;2023-11-19T18:49:18;5.00;;;4.37;;
8046;SDS011;74083;42.516;23.358;2023-11-19T18:52:04;5.50;;;4.67;;
8046;SDS011;74083;42.516;23.358;2023-11-19T18:54:51;4.40;;;3.97;;
8046;SDS011;74083;42.516;23.358;2023-11-19T18:57:37;4.50;;;4.00;;
8046;SDS011;74083;42.516;23.358;2023-11-19T19:00:25;4.37;;;3.90;;
8046;SDS011;74083;42.516;23.358;2023-11-19T19:03:10;4.47;;;4.07;;
8046;SDS011;74083;42.516;23.358;2023-11-19T19:05:59;6.53;;;5.87;;
8046;SDS011;74083;42.516;23.358;2023-11-19T19:08:45;5.87;;;5.27;;
8046;SDS011;74083;42.516;23.358;2023-11-19T19:11:34;7.93;;;6.10;;
8046;SDS011;74083;42.516;23.358;2023-11-19T19:14:20;6.73;;;5.60;;
8046;SDS011;74083;42.516;23.358;2023-11-19T19:17:07;5.70;;;5.10;;
8046;SDS011;74083;42.516;23.358;2023-11-19T19:19:54;4.77;;;4.37;;
8046;SDS011;74083;42.516;23.358;2023-11-19T19:22:40;4.73;;;3.87;;
8046;SDS011;74083;42.516;23.358;2023-11-19T19:25:26;4.17;;;3.77;;
8046;SDS011;74083;42.516;23.358;2023-11-19T19:28:12;3.50;;;3.20;;
8046;SDS011;74083;42.516;23.358;2023-11-19T19:30:58;3.30;;;3.00;;
8046;SDS011;74083;42.516;23.358;2023-11-19T19:33:46;4.30;;;3.90;;
8046;SDS011;74083;42.516;23.358;2023-11-19T19:36:36;3.40;;;3.10;;
8046;SDS011;74083;42.516;23.358;2023-11-19T19:39:22;9.33;;;5.70;;
8046;SDS011;74083;42.516;23.358;2023-11-19T19:42:08;6.40;;;4.77;;
8046;SDS011;74083;42.516;23.358;2023-11-19T19:44:54;5.07;;;3.87;;
8046;SDS011;74083;42.516;23.358;2023-11-19T19:47:40;2.80;;;2.60;;
8046;SDS011;74083;42.516;23.358;2023-11-19T19:50:26;2.67;;;2.47;;
8046;SDS011;74083;42.516;23.358;2023-11-19T19:53:12;2.50;;;2.30;;
8046;SDS011;74083;42.516;23.358;2023-11-19T19:55:58;3.13;;;2.83;;
8046;SDS011;74083;42.516;23.358;2023-11-19T19:58:44;6.07;;;5.20;;
8046;SDS011;74083;42.516;23.358;2023-11-19T20:01:30;7.67;;;5.67;;
8046;SDS011;74083;42.516;23.358;2023-11-19T20:04:16;20.80;;;13.27;;
8046;SDS011;74083;42.516;23.358;2023-11-19T20:07:04;13.27;;;9.63;;
8046;SDS011;74083;42.516;23.358;2023-11-19T20:09:50;10.47;;;7.07;;
8046;SDS011;74083;42.516;23.358;2023-11-19T20:12:36;6.90;;;5.33;;
8046;SDS011;74083;42.516;23.358;2023-11-19T20:15:22;4.93;;;4.10;;
8046;SDS011;74083;42.516;23.358;2023-11-19T20:18:08;5.27;;;3.70;;
8046;SDS011;74083;42.516;23.358;2023-11-19T20:20:55;3.90;;;3.50;;
8046;SDS011;74083;42.516;23.358;2023-11-19T20:23:43;4.17;;;3.20;;
8046;SDS011;74083;42.516;23.358;2023-11-19T20:26:29;12.17;;;9.10;;
8046;SDS011;74083;42.516;23.358;2023-11-19T20:29:15;66.53;;;44.90;;
8046;SDS011;74083;42.516;23.358;2023-11-19T20:32:01;37.17;;;25.93;;
8046;SDS011;74083;42.516;23.358;2023-11-19T20:34:48;26.57;;;20.43;;
8046;SDS011;74083;42.516;23.358;2023-11-19T20:37:35;19.83;;;15.70;;
8046;SDS011;74083;42.516;23.358;2023-11-19T20:40:23;15.13;;;11.97;;
8046;SDS011;74083;42.516;23.358;2023-11-19T20:43:10;12.83;;;9.20;;
8046;SDS011;74083;42.516;23.358;2023-11-19T20:45:56;10.80;;;8.00;;
8046;SDS011;74083;42.516;23.358;2023-11-19T20:48:43;7.70;;;6.47;;
8046;SDS011;74083;42.516;23.358;2023-11-19T20:51:29;10.10;;;6.30;;
8046;SDS011;74083;42.516;23.358;2023-11-19T20:54:16;8.53;;;6.03;;
8046;SDS011;74083;42.516;23.358;2023-11-19T20:57:02;8.10;;;5.63;;
8046;SDS011;74083;42.516;23.358;2023-11-19T20:59:49;6.37;;;5.23;;
8046;SDS011;74083;42.516;23.358;2023-11-19T21:02:35;5.40;;;4.80;;
8046;SDS011;74083;42.516;23.358;2023-11-19T21:05:21;6.77;;;5.00;;
8046;SDS011;74083;42.516;23.358;2023-11-19T21:08:07;5.60;;;5.00;;
8046;SDS011;74083;42.516;23.358;2023-11-19T21:10:53;4.70;;;4.23;;
8046;SDS011;74083;42.516;23.358;2023-11-19T21:13:40;4.03;;;3.63;;
8046;SDS011;74083;42.516;23.358;2023-11-19T21:16:26;3.57;;;3.27;;
8046;SDS011;74083;42.516;23.358;2023-11-19T21:19:13;3.27;;;2.97;;
8046;SDS011;74083;42.516;23.358;2023-11-19T21:21:58;3.30;;;3.00;;
8046;SDS011;74083;42.516;23.358;2023-11-19T21:24:44;2.67;;;2.47;;
8046;SDS011;74083;42.516;23.358;2023-11-19T21:27:30;2.33;;;2.13;;
8046;SDS011;74083;42.516;23.358;2023-11-19T21:30:18;2.60;;;2.40;;
8046;SDS011;74083;42.516;23.358;2023-11-19T21:33:04;2.00;;;1.90;;
8046;SDS011;74083;42.516;23.358;2023-11-19T21:35:51;2.00;;;1.90;;
8046;SDS011;74083;42.516;23.358;2023-11-19T21:38:38;2.23;;;1.93;;
8046;SDS011;74083;42.516;23.358;2023-11-19T21:41:23;1.80;;;1.70;;
8046;SDS011;74083;42.516;23.358;2023-11-19T21:44:09;1.70;;;1.60;;
8046;SDS011;74083;42.516;23.358;2023-11-19T21:46:56;1.80;;;1.70;;
8046;SDS011;74083;42.516;23.358;2023-11-19T21:49:42;1.70;;;1.60;;
8046;SDS011;74083;42.516;23.358;2023-11-19T21:52:28;1.70;;;1.60;;
8046;SDS011;74083;42.516;23.358;2023-11-19T21:55:14;1.60;;;1.50;;
8046;SDS011;74083;42.516;23.358;2023-11-19T21:57:59;1.70;;;1.60;;
8046;SDS011;74083;42.516;23.358;2023-11-19T22:00:45;1.50;;;1.40;;
8046;SDS011;74083;42.516;23.358;2023-11-19T22:03:32;1.73;;;1.63;;
8046;SDS011;74083;42.516;23.358;2023-11-19T22:06:20;1.30;;;1.30;;
8046;SDS011;74083;42.516;23.358;2023-11-19T22:09:06;1.30;;;1.30;;
8046;SDS011;74083;42.516;23.358;2023-11-19T22:11:53;2.23;;;1.40;;
8046;SDS011;74083;42.516;23.358;2023-11-19T22:14:39;1.30;;;1.30;;
8046;SDS011;74083;42.516;23.358;2023-11-19T22:17:25;2.13;;;1.37;;
8046;SDS011;74083;42.516;23.358;2023-11-19T22:20:13;2.63;;;1.50;;
8046;SDS011;74083;42.516;23.358;2023-11-19T22:22:59;1.30;;;1.30;;
8046;SDS011;74083;42.516;23.358;2023-11-19T22:25:44;1.40;;;1.30;;
8046;SDS011;74083;42.516;23.358;2023-11-19T22:28:31;2.00;;;1.60;;
8046;SDS011;74083;42.516;23.358;2023-11-19T22:31:20;1.33;;;1.33;;
8046;SDS011;74083;42.516;23.358;2023-11-19T22:34:06;1.50;;;1.40;;
8046;SDS011;74083;42.516;23.358;2023-11-19T22:36:53;1.57;;;1.47;;
8046;SDS011;74083;42.516;23.358;2023-11-19T22:39:39;1.50;;;1.40;;
8046;SDS011;74083;42.516;23.358;2023-11-19T22:42:25;1.60;;;1.50;;
8046;SDS011;74083;42.516;23.358;2023-11-19T22:45:11;1.60;;;1.50;;
8046;SDS011;74083;42.516;23.358;2023-11-19T22:47:57;1.60;;;1.50;;
8046;SDS011;74083;42.516;23.358;2023-11-19T22:50:42;1.30;;;1.30;;
8046;SDS011;74083;42.516;23.358;2023-11-19T22:53:30;1.40;;;1.30;;
8046;SDS011;74083;42.516;23.358;2023-11-19T22:56:16;1.53;;;1.43;;
8046;SDS011;74083;42.516;23.358;2023-11-19T22:59:02;1.20;;;1.20;;
8046;SDS011;74083;42.516;23.358;2023-11-19T23:01:48;1.20;;;1.20;;
8046;SDS011;74083;42.516;23.358;2023-11-19T23:04:34;1.30;;;1.30;;
8046;SDS011;74083;42.516;23.358;2023-11-19T23:07:20;1.63;;;1.40;;
8046;SDS011;74083;42.516;23.358;2023-11-19T23:10:08;1.30;;;1.30;;
8046;SDS011;74083;42.516;23.358;2023-11-19T23:12:53;1.60;;;1.50;;
8046;SDS011;74083;42.516;23.358;2023-11-19T23:15:40;1.63;;;1.53;;
8046;SDS011;74083;42.516;23.358;2023-11-19T23:18:27;1.60;;;1.50;;
8046;SDS011;74083;42.516;23.358;2023-11-19T23:21:13;1.37;;;1.27;;
8046;SDS011;74083;42.516;23.358;2023-11-19T23:24:02;1.50;;;1.40;;
8046;SDS011;74083;42.516;23.358;2023-11-19T23:26:50;1.50;;;1.40;;
8046;SDS011;74083;42.516;23.358;2023-11-19T23:29:35;1.47;;;1.37;;
8046;SDS011;74083;42.516;23.358;2023-11-19T23:32:21;1.93;;;1.20;;
8046;SDS011;74083;42.516;23.358;2023-11-19T23:35:07;1.70;;;1.60;;
8046;SDS011;74083;42.516;23.358;2023-11-19T23:37:53;1.30;;;1.20;;
8046;SDS011;74083;42.516;23.358;2023-11-19T23:40:40;1.30;;;1.20;;
8046;SDS011;74083;42.516;23.358;2023-11-19T23:43:28;1.30;;;1.20;;
8046;SDS011;74083;42.516;23.358;2023-11-19T23:46:14;1.17;;;1.17;;
8046;SDS011;74083;42.516;23.358;2023-11-19T23:49:00;1.33;;;1.33;;
8046;SDS011;74083;42.516;23.358;2023-11-19T23:51:47;1.50;;;1.40;;
8046;SDS011;74083;42.516;23.358;2023-11-19T23:54:32;1.37;;;1.27;;
8046;SDS011;74083;42.516;23.358;2023-11-19T23:57:18;1.50;;;1.40;;
